createdAt,value
2019-05-16T00:02:01.297Z,8.80
2019-05-16T00:04:28.425Z,8.80
2019-05-16T00:06:54.591Z,8.80
2019-05-16T00:09:20.963Z,8.90
2019-05-16T00:11:48.746Z,8.90
2019-05-16T00:14:15.047Z,8.90
2019-05-16T00:16:41.081Z,8.90
2019-05-16T00:19:09.106Z,9.00
2019-05-16T00:21:35.443Z,9.00
2019-05-16T00:24:01.618Z,9.00
2019-05-16T00:26:28.210Z,9.00
2019-05-16T00:28:55.061Z,9.00
2019-05-16T00:31:21.157Z,9.00
2019-05-16T00:33:48.707Z,9.00
2019-05-16T00:36:15.010Z,9.00
2019-05-16T00:38:41.118Z,8.90
2019-05-16T00:41:08.510Z,8.90
2019-05-16T00:43:34.755Z,8.90
2019-05-16T00:46:00.801Z,8.90
2019-05-16T00:48:28.859Z,8.90
2019-05-16T00:50:55.229Z,8.80
2019-05-16T00:53:21.436Z,8.80
2019-05-16T00:55:48.029Z,8.80
2019-05-16T00:58:19.776Z,8.80
2019-05-16T01:00:49.917Z,8.90
2019-05-16T01:03:16.224Z,8.80
2019-05-16T01:05:43.175Z,8.80
2019-05-16T01:08:10.702Z,8.80
2019-05-16T01:10:39.001Z,8.90
2019-05-16T01:13:07.973Z,8.80
2019-05-16T01:15:34.260Z,8.80
2019-05-16T01:18:01.044Z,8.80
2019-05-16T01:20:27.925Z,8.80
2019-05-16T01:22:54.123Z,8.80
2019-05-16T01:25:20.222Z,8.80
2019-05-16T01:27:47.708Z,8.80
2019-05-16T01:30:14.527Z,8.70
2019-05-16T01:32:40.639Z,8.70
2019-05-16T01:35:08.341Z,8.70
2019-05-16T01:37:34.659Z,8.70
2019-05-16T01:40:00.714Z,8.60
2019-05-16T01:42:27.881Z,8.60
2019-05-16T01:44:54.148Z,8.60
2019-05-16T01:47:20.224Z,8.60
2019-05-16T01:49:48.572Z,8.70
2019-05-16T01:52:17.703Z,8.70
2019-05-16T01:54:43.367Z,8.70
2019-05-16T01:57:09.863Z,8.70
2019-05-16T01:59:38.065Z,8.70
2019-05-16T02:02:04.158Z,8.70
2019-05-16T02:04:30.363Z,8.70
2019-05-16T02:06:58.511Z,8.70
2019-05-16T02:09:25.251Z,8.60
2019-05-16T02:11:51.455Z,8.60
2019-05-16T02:14:17.866Z,8.60
2019-05-16T02:16:44.625Z,8.60
2019-05-16T02:19:10.668Z,8.60
2019-05-16T02:21:38.890Z,8.60
2019-05-16T02:24:05.024Z,8.60
2019-05-16T02:26:31.127Z,8.60
2019-05-16T02:28:57.823Z,8.60
2019-05-16T02:31:23.910Z,8.60
2019-05-16T02:33:51.061Z,8.60
2019-05-16T02:36:21.274Z,8.60
2019-05-16T02:38:45.605Z,8.60
2019-05-16T02:41:12.301Z,8.60
2019-05-16T02:43:41.713Z,8.60
2019-05-16T02:46:06.456Z,8.60
2019-05-16T02:48:35.443Z,8.70
2019-05-16T02:51:01.827Z,8.70
2019-05-16T02:53:31.036Z,8.70
2019-05-16T02:55:56.951Z,8.70
2019-05-16T02:58:23.766Z,8.60
2019-05-16T03:00:51.432Z,8.60
2019-05-16T03:03:20.947Z,8.50
2019-05-16T03:05:46.196Z,8.40
2019-05-16T03:08:12.649Z,8.40
2019-05-16T03:10:41.360Z,8.40
2019-05-16T03:13:07.663Z,8.40
2019-05-16T03:15:34.598Z,8.40
2019-05-16T03:18:04.279Z,8.40
2019-05-16T03:20:31.823Z,8.40
2019-05-16T03:22:58.156Z,8.40
2019-05-16T03:25:26.360Z,8.40
2019-05-16T03:27:52.525Z,8.40
2019-05-16T03:30:23.338Z,8.40
2019-05-16T03:32:46.674Z,8.40
2019-05-16T03:35:15.399Z,8.40
2019-05-16T03:37:53.931Z,8.40
2019-05-16T03:40:14.581Z,8.40
2019-05-16T03:42:41.605Z,8.50
2019-05-16T03:45:10.745Z,8.50
2019-05-16T03:47:37.209Z,8.50
2019-05-16T03:50:05.398Z,8.50
2019-05-16T03:52:31.494Z,8.30
2019-05-16T03:54:57.534Z,8.40
2019-05-16T03:57:23.632Z,8.30
2019-05-16T03:59:51.786Z,8.50
2019-05-16T04:02:17.703Z,8.40
2019-05-16T04:04:43.801Z,8.30
2019-05-16T04:07:11.392Z,8.30
2019-05-16T04:09:41.254Z,8.20
2019-05-16T04:12:06.259Z,8.20
2019-05-16T04:14:32.380Z,8.20
2019-05-16T04:17:01.306Z,8.30
2019-05-16T04:19:31.181Z,8.40
2019-05-16T04:21:55.893Z,8.40
2019-05-16T04:24:21.980Z,8.30
2019-05-16T04:26:51.353Z,8.30
2019-05-16T04:29:16.112Z,8.40
2019-05-16T04:31:42.304Z,8.40
2019-05-16T04:34:11.485Z,8.40
2019-05-16T04:36:36.452Z,8.40
2019-05-16T04:39:05.230Z,8.40
2019-05-16T04:41:31.475Z,8.40
2019-05-16T04:44:01.442Z,8.40
2019-05-16T04:46:25.515Z,8.40
2019-05-16T04:48:51.615Z,8.40
2019-05-16T04:51:21.592Z,8.40
2019-05-16T04:53:45.783Z,8.40
2019-05-16T04:56:11.890Z,8.40
2019-05-16T04:58:40.641Z,8.40
2019-05-16T05:01:06.020Z,8.40
2019-05-16T05:03:32.139Z,8.40
2019-05-16T05:06:01.237Z,8.30
2019-05-16T05:08:30.500Z,8.30
2019-05-16T05:10:55.436Z,8.40
2019-05-16T05:13:23.288Z,8.40
2019-05-16T05:15:51.081Z,8.40
2019-05-16T05:18:17.330Z,8.40
2019-05-16T05:20:43.519Z,8.50
2019-05-16T05:23:09.922Z,8.50
2019-05-16T05:25:36.521Z,8.40
2019-05-16T05:28:03.786Z,8.50
2019-05-16T05:30:30.385Z,8.60
2019-05-16T05:32:57.369Z,8.60
2019-05-16T05:35:23.564Z,8.50
2019-05-16T05:37:50.811Z,8.50
2019-05-16T05:40:19.904Z,8.50
2019-05-16T05:42:45.963Z,8.50
2019-05-16T05:45:12.781Z,8.60
2019-05-16T05:47:40.288Z,8.70
2019-05-16T05:50:08.099Z,8.70
2019-05-16T05:52:34.156Z,8.70
2019-05-16T05:55:01.292Z,8.80
2019-05-16T05:57:29.853Z,8.80
2019-05-16T05:59:55.306Z,8.90
2019-05-16T06:02:21.426Z,8.90
2019-05-16T06:04:47.567Z,8.80
2019-05-16T06:07:13.612Z,8.90
2019-05-16T06:09:52.457Z,9.00
2019-05-16T06:12:10.373Z,9.00
2019-05-16T06:14:35.627Z,9.00
2019-05-16T06:17:01.711Z,9.00
2019-05-16T06:19:29.783Z,9.00
2019-05-16T06:21:56.724Z,9.10
2019-05-16T06:24:22.810Z,9.10
2019-05-16T06:26:50.414Z,9.10
2019-05-16T06:29:20.365Z,9.10
2019-05-16T06:31:46.469Z,9.30
2019-05-16T06:34:15.268Z,9.30
2019-05-16T06:36:42.177Z,9.50
2019-05-16T06:39:11.231Z,9.60
2019-05-16T06:41:36.267Z,9.60
2019-05-16T06:44:02.314Z,9.70
2019-05-16T06:46:30.642Z,9.70
2019-05-16T06:48:56.781Z,9.80
2019-05-16T06:51:23.867Z,9.80
2019-05-16T06:53:50.255Z,9.80
2019-05-16T06:56:16.369Z,9.80
2019-05-16T06:58:47.636Z,9.90
2019-05-16T07:01:10.572Z,10.00
2019-05-16T07:03:39.703Z,10.00
2019-05-16T07:06:05.544Z,10.10
2019-05-16T07:08:31.622Z,10.20
2019-05-16T07:10:59.850Z,10.20
2019-05-16T07:13:25.708Z,10.20
2019-05-16T07:15:52.038Z,10.10
2019-05-16T07:18:20.766Z,10.10
2019-05-16T07:20:46.278Z,9.90
2019-05-16T07:23:12.385Z,9.90
2019-05-16T07:25:40.616Z,9.90
2019-05-16T07:28:06.537Z,10.20
2019-05-16T07:30:32.937Z,10.20
2019-05-16T07:33:00.317Z,10.20
2019-05-16T07:35:26.490Z,10.20
2019-05-16T07:37:52.697Z,10.10
2019-05-16T07:40:26.481Z,10.20
2019-05-16T07:42:50.780Z,10.30
2019-05-16T07:45:16.603Z,10.30
2019-05-16T07:47:42.703Z,10.20
2019-05-16T07:50:10.371Z,10.10
2019-05-16T07:52:37.125Z,10.10
2019-05-16T07:55:04.543Z,10.10
2019-05-16T07:57:30.742Z,10.00
2019-05-16T07:59:56.962Z,10.00
2019-05-16T08:02:24.393Z,10.00
2019-05-16T08:04:50.851Z,9.90
2019-05-16T08:07:17.003Z,9.90
2019-05-16T08:09:43.703Z,10.00
2019-05-16T08:12:11.628Z,9.90
2019-05-16T08:14:37.679Z,9.80
2019-05-16T08:17:03.812Z,9.80
2019-05-16T08:19:30.582Z,9.70
2019-05-16T08:21:56.899Z,9.80
2019-05-16T08:24:23.103Z,9.80
2019-05-16T08:26:51.470Z,9.80
2019-05-16T08:29:17.763Z,9.70
2019-05-16T08:31:43.824Z,9.80
2019-05-16T08:34:12.231Z,9.80
2019-05-16T08:36:41.012Z,9.90
2019-05-16T08:39:07.282Z,9.90
2019-05-16T08:41:33.475Z,10.00
2019-05-16T08:44:01.234Z,10.00
2019-05-16T08:46:27.522Z,10.00
2019-05-16T08:48:54.406Z,9.90
2019-05-16T08:51:22.200Z,9.90
2019-05-16T08:53:50.436Z,9.80
2019-05-16T08:56:16.785Z,9.70
2019-05-16T08:58:42.890Z,9.70
2019-05-16T09:01:14.543Z,9.80
2019-05-16T09:03:40.725Z,9.90
2019-05-16T09:06:05.415Z,9.90
2019-05-16T09:08:31.550Z,9.90
2019-05-16T09:11:02.042Z,9.90
2019-05-16T09:13:27.914Z,10.00
2019-05-16T09:15:56.665Z,10.00
2019-05-16T09:18:22.132Z,10.00
2019-05-16T09:20:50.358Z,10.00
2019-05-16T09:23:17.903Z,9.90
2019-05-16T09:25:48.454Z,9.90
2019-05-16T09:28:13.464Z,9.90
2019-05-16T09:30:39.542Z,9.90
2019-05-16T09:33:07.134Z,9.80
2019-05-16T09:35:33.514Z,9.70
2019-05-16T09:37:59.603Z,9.60
2019-05-16T09:40:27.841Z,9.50
2019-05-16T09:42:53.787Z,9.60
2019-05-16T09:45:19.855Z,9.60
2019-05-16T09:47:48.483Z,9.60
2019-05-16T09:50:17.386Z,9.70
2019-05-16T09:52:43.750Z,9.70
2019-05-16T09:55:10.452Z,9.70
2019-05-16T09:57:37.783Z,9.60
2019-05-16T10:00:07.323Z,9.80
2019-05-16T10:02:33.502Z,9.60
2019-05-16T10:05:00.888Z,9.40
2019-05-16T10:07:28.203Z,9.40
2019-05-16T10:09:57.045Z,9.40
2019-05-16T10:12:23.386Z,9.50
2019-05-16T10:14:49.481Z,9.40
2019-05-16T10:17:17.704Z,9.40
2019-05-16T10:19:43.483Z,9.30
2019-05-16T10:22:10.923Z,9.30
2019-05-16T10:24:38.233Z,9.20
2019-05-16T10:27:06.435Z,9.20
2019-05-16T10:29:32.280Z,9.20
2019-05-16T10:31:58.423Z,9.20
2019-05-16T10:34:26.587Z,9.20
2019-05-16T10:36:52.800Z,9.10
2019-05-16T10:39:19.078Z,9.10
2019-05-16T10:41:46.655Z,9.10
2019-05-16T10:44:12.964Z,9.10
2019-05-16T10:46:39.067Z,9.00
2019-05-16T10:49:05.909Z,8.90
2019-05-16T10:51:32.019Z,8.90
2019-05-16T10:54:08.870Z,8.90
2019-05-16T10:56:26.112Z,8.90
2019-05-16T10:59:34.814Z,8.90
2019-05-16T11:01:27.397Z,9.00
2019-05-16T11:03:49.207Z,8.90
2019-05-16T11:06:25.238Z,8.80
2019-05-16T11:08:43.640Z,8.80
2019-05-16T11:11:09.735Z,8.70
2019-05-16T11:13:37.045Z,8.70
2019-05-16T11:16:03.227Z,8.60
2019-05-16T11:18:29.249Z,8.50
2019-05-16T11:20:58.084Z,8.60
2019-05-16T11:23:24.488Z,8.60
2019-05-16T11:25:55.072Z,8.60
2019-05-16T11:28:20.472Z,8.70
2019-05-16T11:30:47.659Z,8.80
2019-05-16T11:33:13.939Z,8.90
2019-05-16T11:35:41.356Z,9.00
2019-05-16T11:38:08.544Z,8.90
2019-05-16T11:40:36.183Z,8.90
2019-05-16T11:43:10.621Z,8.90
2019-05-16T11:45:30.676Z,8.80
2019-05-16T11:47:57.142Z,8.70
2019-05-16T11:50:23.245Z,8.70
2019-05-16T11:52:49.499Z,8.70
2019-05-16T11:55:16.178Z,8.80
2019-05-16T11:57:42.472Z,8.90
2019-05-16T12:00:10.902Z,8.90
2019-05-16T12:02:41.952Z,9.00
2019-05-16T12:05:06.992Z,8.90
2019-05-16T12:07:35.072Z,9.00
2019-05-16T12:10:07.544Z,8.90
2019-05-16T12:12:33.887Z,8.80
2019-05-16T12:14:59.931Z,8.90
2019-05-16T12:17:27.994Z,8.90
2019-05-16T12:19:57.430Z,8.90
2019-05-16T12:22:22.171Z,9.00
2019-05-16T12:24:48.339Z,9.00
2019-05-16T12:27:16.656Z,9.10
2019-05-16T12:29:42.761Z,9.00
2019-05-16T12:32:08.896Z,9.10
2019-05-16T12:34:36.869Z,9.00
2019-05-16T12:37:04.097Z,9.10
2019-05-16T12:39:30.298Z,9.00
2019-05-16T12:41:59.345Z,9.00
2019-05-16T12:44:26.752Z,9.00
2019-05-16T12:46:53.055Z,8.80
2019-05-16T12:49:19.205Z,8.80
2019-05-16T12:51:46.585Z,8.80
2019-05-16T12:54:12.803Z,8.90
2019-05-16T12:56:39.184Z,9.00
2019-05-16T12:59:05.355Z,9.00
2019-05-16T13:01:34.328Z,9.10
2019-05-16T13:04:01.056Z,9.10
2019-05-16T13:06:27.799Z,9.10
2019-05-16T13:08:54.051Z,9.10
2019-05-16T13:11:20.091Z,9.10
2019-05-16T13:14:02.221Z,9.10
2019-05-16T13:16:16.569Z,9.10
2019-05-16T13:18:42.127Z,9.20
2019-05-16T13:21:08.209Z,9.40
2019-05-16T13:23:34.387Z,9.40
2019-05-16T13:26:00.616Z,9.50
2019-05-16T13:28:26.661Z,9.50
2019-05-16T13:30:53.021Z,9.50
2019-05-16T13:33:19.491Z,9.40
2019-05-16T13:35:47.160Z,9.30
2019-05-16T13:38:13.492Z,9.20
2019-05-16T13:40:39.608Z,9.10
2019-05-16T13:43:09.762Z,9.20
2019-05-16T13:45:33.714Z,9.20
2019-05-16T13:47:59.759Z,9.20
2019-05-16T13:50:27.306Z,9.10
2019-05-16T13:52:53.623Z,9.20
2019-05-16T13:55:20.968Z,9.20
2019-05-16T13:57:47.623Z,9.20
2019-05-16T14:00:13.971Z,9.20
2019-05-16T14:02:41.901Z,9.30
2019-05-16T14:05:08.572Z,9.30
2019-05-16T14:07:37.060Z,9.20
2019-05-16T14:10:06.728Z,9.30
2019-05-16T14:12:32.767Z,9.10
2019-05-16T14:14:59.620Z,9.10
2019-05-16T14:17:27.536Z,9.00
2019-05-16T14:19:57.149Z,9.10
2019-05-16T14:22:22.829Z,9.10
2019-05-16T14:24:49.000Z,9.20
2019-05-16T14:27:17.194Z,9.10
2019-05-16T14:29:43.063Z,9.10
2019-05-16T14:32:10.534Z,9.10
2019-05-16T14:34:38.423Z,9.20
2019-05-16T14:37:07.107Z,9.20
2019-05-16T14:39:32.859Z,9.00
2019-05-16T14:41:59.053Z,9.00
2019-05-16T14:44:28.388Z,9.10
2019-05-16T14:46:53.088Z,9.10
2019-05-16T14:49:20.785Z,9.10
2019-05-16T14:51:47.657Z,9.10
2019-05-16T14:54:14.007Z,9.20
2019-05-16T14:56:40.108Z,9.30
2019-05-16T14:59:08.213Z,9.30
2019-05-16T15:01:37.867Z,9.30
2019-05-16T15:04:03.377Z,9.30
2019-05-16T15:06:29.549Z,9.20
2019-05-16T15:08:56.738Z,9.20
2019-05-16T15:11:22.974Z,9.20
2019-05-16T15:13:49.140Z,9.20
2019-05-16T15:16:16.935Z,9.20
2019-05-16T15:18:43.904Z,9.20
2019-05-16T15:21:10.165Z,9.20
2019-05-16T15:23:36.506Z,9.20
2019-05-16T15:26:03.578Z,9.20
2019-05-16T15:28:30.487Z,9.20
2019-05-16T15:30:57.473Z,9.30
2019-05-16T15:33:23.879Z,9.30
2019-05-16T15:35:50.019Z,9.20
2019-05-16T15:38:16.668Z,9.20
2019-05-16T15:40:42.883Z,9.20
2019-05-16T15:43:09.109Z,9.10
2019-05-16T15:45:43.381Z,9.00
2019-05-16T15:48:09.823Z,9.00
2019-05-16T15:50:37.212Z,9.00
2019-05-16T15:53:03.645Z,9.10
2019-05-16T15:55:30.773Z,9.00
2019-05-16T15:57:56.909Z,9.00
2019-05-16T16:00:37.883Z,9.10
2019-05-16T16:03:07.023Z,9.00
2019-05-16T16:05:32.807Z,8.90
2019-05-16T16:07:59.358Z,9.00
2019-05-16T16:10:37.166Z,9.00
2019-05-16T16:13:03.041Z,9.00
2019-05-16T16:15:29.207Z,9.10
2019-05-16T16:17:57.403Z,9.10
2019-05-16T16:20:23.926Z,9.00
2019-05-16T16:22:50.071Z,9.10
2019-05-16T16:25:17.522Z,9.10
2019-05-16T16:27:43.999Z,9.20
2019-05-16T16:30:10.440Z,9.20
2019-05-16T16:32:38.231Z,9.20
2019-05-16T16:35:08.124Z,9.20
2019-05-16T16:37:34.325Z,9.10
2019-05-16T16:40:00.349Z,9.20
2019-05-16T16:42:27.503Z,9.20
2019-05-16T16:44:53.753Z,9.20
2019-05-16T16:47:19.799Z,9.20
2019-05-16T16:49:46.897Z,9.20
2019-05-16T16:52:13.152Z,9.20
2019-05-16T16:54:39.370Z,9.10
2019-05-16T16:57:07.726Z,9.20
2019-05-16T16:59:33.427Z,9.20
2019-05-16T17:01:59.579Z,9.10
2019-05-16T17:04:26.715Z,9.10
2019-05-16T17:06:52.964Z,9.10
2019-05-16T17:09:19.090Z,9.10
2019-05-16T17:11:46.560Z,9.20
2019-05-16T17:14:14.351Z,9.20
2019-05-16T17:16:40.527Z,9.10
2019-05-16T17:19:07.705Z,9.10
2019-05-16T17:21:33.998Z,9.10
2019-05-16T17:24:00.035Z,9.10
2019-05-16T17:26:27.512Z,9.10
2019-05-16T17:28:53.702Z,9.10
2019-05-16T17:31:19.833Z,9.10
2019-05-16T17:33:45.972Z,9.10
2019-05-16T17:36:12.186Z,9.10
2019-05-16T17:38:38.231Z,9.10
2019-05-16T17:41:04.314Z,9.10
2019-05-16T17:43:30.557Z,9.00
2019-05-16T17:45:57.537Z,9.00
2019-05-16T17:48:27.219Z,9.10
2019-05-16T17:50:51.895Z,9.00
2019-05-16T17:53:17.944Z,9.00
2019-05-16T17:55:44.105Z,9.00
2019-05-16T17:58:10.269Z,8.90
2019-05-16T18:00:36.397Z,8.90
2019-05-16T18:03:02.576Z,8.90
2019-05-16T18:05:28.641Z,8.90
2019-05-16T18:07:56.429Z,8.90
2019-05-16T18:10:22.805Z,8.90
2019-05-16T18:12:48.846Z,8.90
2019-05-16T18:15:19.759Z,9.00
2019-05-16T18:17:46.731Z,9.00
2019-05-16T18:20:12.927Z,9.00
2019-05-16T18:22:39.027Z,9.00
2019-05-16T18:25:08.572Z,8.90
2019-05-16T18:27:34.611Z,8.90
2019-05-16T18:30:00.763Z,8.90
2019-05-16T18:32:27.057Z,8.90
2019-05-16T18:34:56.315Z,9.00
2019-05-16T18:37:22.026Z,8.90
2019-05-16T18:39:48.148Z,9.00
2019-05-16T18:42:16.611Z,8.90
2019-05-16T18:44:42.131Z,8.90
2019-05-16T18:47:11.370Z,8.80
2019-05-16T18:49:36.842Z,8.90
2019-05-16T18:52:03.060Z,8.80
2019-05-16T18:54:29.172Z,8.80
2019-05-16T18:56:57.828Z,8.80
2019-05-16T18:59:26.093Z,8.90
2019-05-16T19:01:52.196Z,8.80
2019-05-16T19:04:18.707Z,8.80
2019-05-16T19:06:45.152Z,8.80
2019-05-16T19:09:11.191Z,8.70
2019-05-16T19:11:37.660Z,8.70
2019-05-16T19:14:03.931Z,8.70
2019-05-16T19:16:30.053Z,8.80
2019-05-16T19:18:56.591Z,8.80
2019-05-16T19:21:26.215Z,8.80
2019-05-16T19:23:52.431Z,8.70
2019-05-16T19:26:18.742Z,8.80
2019-05-16T19:28:46.651Z,8.80
2019-05-16T19:31:14.129Z,8.80
2019-05-16T19:33:40.431Z,8.80
2019-05-16T19:36:07.355Z,8.80
2019-05-16T19:38:33.673Z,8.80
2019-05-16T19:40:59.835Z,8.80
2019-05-16T19:43:26.515Z,8.80
2019-05-16T19:45:53.864Z,8.80
2019-05-16T19:48:19.903Z,8.70
2019-05-16T19:50:46.384Z,8.80
2019-05-16T19:53:12.676Z,8.80
2019-05-16T19:55:38.709Z,8.70
2019-05-16T19:58:06.989Z,8.70
2019-05-16T20:00:32.739Z,8.70
2019-05-16T20:02:58.885Z,8.70
2019-05-16T20:05:26.731Z,8.70
2019-05-16T20:07:52.979Z,8.70
2019-05-16T20:10:20.379Z,8.70
2019-05-16T20:12:47.236Z,8.70
2019-05-16T20:15:13.788Z,8.70
2019-05-16T20:17:51.021Z,8.70
2019-05-16T20:20:09.888Z,8.50
2019-05-16T20:22:36.940Z,8.50
2019-05-16T20:25:05.080Z,8.40
2019-05-16T20:27:31.588Z,8.40
2019-05-16T20:29:59.418Z,8.40
2019-05-16T20:32:27.585Z,8.40
2019-05-16T20:34:53.859Z,8.40
2019-05-16T20:37:20.114Z,8.40
2019-05-16T20:39:46.624Z,8.40
2019-05-16T20:42:12.839Z,8.40
2019-05-16T20:44:38.888Z,8.40
2019-05-16T20:47:07.034Z,8.40
2019-05-16T20:49:33.817Z,8.40
2019-05-16T20:52:00.087Z,8.40
2019-05-16T20:54:26.856Z,8.40
2019-05-16T20:56:53.013Z,8.40
2019-05-16T20:59:19.103Z,8.40
2019-05-16T21:01:46.457Z,8.30
2019-05-16T21:04:13.147Z,8.30
2019-05-16T21:06:39.255Z,8.20
2019-05-16T21:09:06.865Z,8.20
2019-05-16T21:11:33.071Z,8.20
2019-05-16T21:13:59.201Z,8.10
2019-05-16T21:16:26.984Z,8.10
2019-05-16T21:18:53.359Z,8.10
2019-05-16T21:21:19.520Z,8.10
2019-05-16T21:23:46.995Z,8.10
2019-05-16T21:26:13.729Z,8.00
2019-05-16T21:28:39.989Z,8.00
2019-05-16T21:31:07.457Z,8.00
2019-05-16T21:33:36.248Z,8.00
2019-05-16T21:36:02.627Z,8.00
2019-05-16T21:38:28.675Z,8.00
2019-05-16T21:40:58.144Z,8.00
2019-05-16T21:43:24.243Z,8.00
2019-05-16T21:45:50.314Z,8.00
2019-05-16T21:48:19.195Z,8.10
2019-05-16T21:50:46.227Z,8.10
2019-05-16T21:53:12.812Z,8.00
2019-05-16T21:55:38.980Z,8.00
2019-05-16T21:58:05.066Z,8.10
2019-05-16T22:00:38.071Z,8.10
2019-05-16T22:03:04.317Z,8.00
2019-05-16T22:05:30.508Z,8.00
2019-05-16T22:07:56.867Z,8.10
2019-05-16T22:10:23.134Z,8.10
2019-05-16T22:12:49.198Z,8.00
2019-05-16T22:15:17.085Z,8.10
2019-05-16T22:17:43.335Z,8.10
2019-05-16T22:20:09.828Z,8.10
2019-05-16T22:22:38.119Z,8.20
2019-05-16T22:25:04.560Z,8.20
2019-05-16T22:27:32.069Z,8.10
2019-05-16T22:29:58.155Z,8.10
2019-05-16T22:32:24.252Z,8.10
2019-05-16T22:34:50.907Z,8.10
2019-05-16T22:37:17.232Z,8.10
2019-05-16T22:39:43.432Z,8.20
2019-05-16T22:42:10.865Z,8.20
2019-05-16T22:44:37.242Z,8.20
2019-05-16T22:47:06.560Z,8.20
2019-05-16T22:49:32.427Z,8.20
2019-05-16T22:51:58.508Z,8.20
2019-05-16T22:54:26.286Z,8.20
2019-05-16T22:56:52.481Z,8.30
2019-05-16T22:59:19.971Z,8.30
2019-05-16T23:01:46.055Z,8.30
2019-05-16T23:04:12.105Z,8.30
2019-05-16T23:06:38.571Z,8.20
2019-05-16T23:09:06.950Z,8.30
2019-05-16T23:11:33.106Z,8.30
2019-05-16T23:13:59.207Z,8.30
2019-05-16T23:16:26.635Z,8.30
2019-05-16T23:18:52.889Z,8.30
2019-05-16T23:21:18.979Z,8.40
2019-05-16T23:23:46.533Z,8.30
2019-05-16T23:26:12.751Z,8.30
2019-05-16T23:28:38.886Z,8.20
2019-05-16T23:31:06.464Z,8.20
2019-05-16T23:33:32.611Z,8.10
2019-05-16T23:35:58.695Z,8.10
2019-05-16T23:38:27.671Z,8.00
2019-05-16T23:40:53.547Z,8.10
2019-05-16T23:43:19.629Z,8.10
2019-05-16T23:45:46.934Z,8.10
2019-05-16T23:48:13.116Z,8.00
2019-05-16T23:50:39.236Z,8.10
2019-05-16T23:53:07.394Z,8.10
2019-05-16T23:55:36.881Z,8.10
2019-05-16T23:58:02.241Z,8.10
